Time,TemperatureF,DewpointF,PressureIn,WindDirection,WindDirectionDegrees,WindSpeedMPH,WindSpeedGustMPH,Humidity,HourlyPrecipIn,Conditions,Clouds,dailyrainin,SoftwareType,DateUTC
2013-01-11 00:00:00,63.0,60.0,30.11,North,32767,0.0,0.0,90,0.00,,,0.00,Wunderground v.1.15,2013-01-11 06:00:00,
2013-01-11 00:05:00,63.0,60.0,30.11,North,32767,0.0,0.0,90,0.00,,,0.00,Wunderground v.1.15,2013-01-11 06:05:00,
2013-01-11 00:10:00,62.8,59.8,30.11,North,32767,0.0,0.0,90,0.00,,,0.00,Wunderground v.1.15,2013-01-11 06:10:00,
2013-01-11 00:15:00,62.6,59.6,30.11,North,32767,0.0,0.0,90,0.00,,,0.00,Wunderground v.1.15,2013-01-11 06:15:00,
2013-01-11 00:20:00,62.5,59.5,30.11,North,32767,0.0,0.0,90,0.00,,,0.00,Wunderground v.1.15,2013-01-11 06:20:00,
2013-01-11 00:25:00,62.3,59.3,30.11,North,32767,0.0,0.0,90,0.00,,,0.00,Wunderground v.1.15,2013-01-11 06:25:00,
2013-01-11 00:30:00,62.2,59.2,30.11,North,32767,0.0,0.0,90,0.00,,,0.00,Wunderground v.1.15,2013-01-11 06:30:00,
2013-01-11 00:35:00,62.1,59.1,30.10,North,32767,0.0,0.0,90,0.00,,,0.00,Wunderground v.1.15,2013-01-11 06:35:00,
2013-01-11 00:40:00,62.1,59.4,30.11,North,32767,0.0,0.0,91,0.00,,,0.00,Wunderground v.1.15,2013-01-11 06:40:00,
2013-01-11 00:45:00,62.0,59.3,30.11,North,32767,0.0,0.0,91,0.00,,,0.00,Wunderground v.1.15,2013-01-11 06:45:00,
2013-01-11 00:50:00,62.0,59.0,30.10,North,32767,0.0,0.0,90,0.00,,,0.00,Wunderground v.1.15,2013-01-11 06:50:00,
2013-01-11 00:55:00,62.0,59.0,30.10,North,32767,0.0,0.0,90,0.00,,,0.00,Wunderground v.1.15,2013-01-11 06:55:00,
2013-01-11 01:00:00,61.9,58.9,30.10,North,32767,0.0,0.0,90,0.00,,,0.00,Wunderground v.1.15,2013-01-11 07:00:00,
2013-01-11 01:05:00,62.0,59.0,30.10,North,32767,0.0,0.0,90,0.00,,,0.00,Wunderground v.1.15,2013-01-11 07:05:00,
2013-01-11 01:10:00,62.1,59.4,30.10,North,32767,0.0,0.0,91,0.00,,,0.00,Wunderground v.1.15,2013-01-11 07:10:00,
2013-01-11 01:15:00,62.4,59.7,30.10,North,32767,0.0,0.0,91,0.00,,,0.00,Wunderground v.1.15,2013-01-11 07:15:00,
2013-01-11 01:20:00,62.8,60.1,30.10,North,32767,0.0,0.0,91,0.00,,,0.00,Wunderground v.1.15,2013-01-11 07:20:00,
2013-01-11 01:25:00,63.0,60.3,30.09,North,32767,0.0,0.0,91,0.00,,,0.00,Wunderground v.1.15,2013-01-11 07:25:00,
2013-01-11 01:30:00,63.3,60.6,30.09,North,32767,0.0,0.0,91,0.00,,,0.00,Wunderground v.1.15,2013-01-11 07:30:00,
2013-01-11 01:35:00,63.5,60.8,30.10,North,32767,0.0,0.0,91,0.00,,,0.00,Wunderground v.1.15,2013-01-11 07:35:00,
2013-01-11 01:40:00,63.6,60.9,30.09,North,32767,0.0,0.0,91,0.00,,,0.00,Wunderground v.1.15,2013-01-11 07:40:00,
2013-01-11 01:45:00,63.8,61.1,30.09,North,32767,0.0,0.0,91,0.00,,,0.00,Wunderground v.1.15,2013-01-11 07:45:00,
2013-01-11 01:50:00,63.9,61.2,30.09,North,32767,0.0,0.0,91,0.00,,,0.00,Wunderground v.1.15,2013-01-11 07:50:00,
2013-01-11 01:55:00,64.0,61.3,30.08,North,32767,0.0,0.0,91,0.00,,,0.00,Wunderground v.1.15,2013-01-11 07:55:00,
2013-01-11 02:00:00,64.0,61.3,30.08,North,32767,0.0,0.0,91,0.00,,,0.00,Wunderground v.1.15,2013-01-11 08:00:00,
2013-01-11 02:05:00,64.1,61.4,30.07,North,32767,0.0,0.0,91,0.00,,,0.00,Wunderground v.1.15,2013-01-11 08:05:00,
2013-01-11 02:10:00,64.1,61.4,30.07,North,32767,0.0,0.0,91,0.00,,,0.00,Wunderground v.1.15,2013-01-11 08:10:00,
2013-01-11 02:15:00,64.1,61.4,30.07,North,32767,0.0,0.0,91,0.00,,,0.00,Wunderground v.1.15,2013-01-11 08:15:00,
2013-01-11 02:20:00,64.1,61.4,30.08,North,32767,0.0,0.0,91,0.00,,,0.00,Wunderground v.1.15,2013-01-11 08:20:00,
2013-01-11 02:25:00,64.0,61.3,30.08,North,32767,0.0,0.0,91,0.00,,,0.00,Wunderground v.1.15,2013-01-11 08:25:00,
2013-01-11 02:30:00,64.0,61.3,30.07,North,32767,0.0,0.0,91,0.00,,,0.00,Wunderground v.1.15,2013-01-11 08:30:00,
2013-01-11 02:35:00,64.0,61.3,30.07,North,32767,0.0,0.0,91,0.00,,,0.00,Wunderground v.1.15,2013-01-11 08:35:00,
2013-01-11 02:40:00,64.0,61.3,30.07,North,32767,0.0,0.0,91,0.00,,,0.00,Wunderground v.1.15,2013-01-11 08:40:00,
2013-01-11 02:45:00,63.9,61.2,30.07,North,32767,0.0,0.0,91,0.00,,,0.00,Wunderground v.1.15,2013-01-11 08:45:00,
2013-01-11 02:50:00,63.9,61.2,30.07,North,32767,0.0,0.0,91,0.00,,,0.00,Wunderground v.1.15,2013-01-11 08:50:00,
2013-01-11 02:55:00,63.8,61.1,30.07,North,32767,0.0,0.0,91,0.00,,,0.00,Wunderground v.1.15,2013-01-11 08:55:00,
2013-01-11 03:00:00,63.7,61.0,30.07,North,32767,0.0,0.0,91,0.00,,,0.00,Wunderground v.1.15,2013-01-11 09:00:00,
2013-01-11 03:05:00,63.6,60.9,30.07,North,32767,0.0,0.0,91,0.00,,,0.00,Wunderground v.1.15,2013-01-11 09:05:00,
2013-01-11 03:10:00,63.6,60.9,30.06,North,32767,0.0,0.0,91,0.00,,,0.00,Wunderground v.1.15,2013-01-11 09:10:00,
2013-01-11 03:15:00,63.5,60.8,30.06,North,32767,0.0,0.0,91,0.00,,,0.00,Wunderground v.1.15,2013-01-11 09:15:00,
2013-01-11 03:20:00,63.5,60.8,30.06,North,32767,0.0,0.0,91,0.00,,,0.00,Wunderground v.1.15,2013-01-11 09:20:00,
2013-01-11 03:25:00,63.4,60.7,30.06,North,32767,0.0,0.0,91,0.00,,,0.00,Wunderground v.1.15,2013-01-11 09:25:00,
2013-01-11 03:30:00,63.3,60.6,30.06,North,32767,0.0,0.0,91,0.00,,,0.00,Wunderground v.1.15,2013-01-11 09:30:00,
2013-01-11 03:35:00,63.2,60.5,30.06,North,32767,0.0,0.0,91,0.00,,,0.00,Wunderground v.1.15,2013-01-11 09:35:00,
2013-01-11 03:40:00,63.1,60.4,30.06,North,32767,0.0,0.0,91,0.00,,,0.00,Wunderground v.1.15,2013-01-11 09:40:00,
2013-01-11 03:45:00,63.0,60.3,30.06,North,32767,0.0,0.0,91,0.00,,,0.00,Wunderground v.1.15,2013-01-11 09:45:00,
2013-01-11 03:50:00,63.0,60.3,30.06,North,32767,0.0,0.0,91,0.00,,,0.00,Wunderground v.1.15,2013-01-11 09:50:00,
2013-01-11 03:55:00,63.0,60.3,30.06,North,32767,0.0,0.0,91,0.00,,,0.00,Wunderground v.1.15,2013-01-11 09:55:00,
2013-01-11 04:00:00,63.0,60.3,30.06,North,32767,0.0,0.0,91,0.00,,,0.00,Wunderground v.1.15,2013-01-11 10:00:00,
2013-01-11 04:05:00,63.0,60.3,30.06,North,32767,0.0,0.0,91,0.00,,,0.00,Wunderground v.1.15,2013-01-11 10:05:00,
2013-01-11 04:10:00,63.1,60.4,30.06,North,32767,0.0,0.0,91,0.00,,,0.00,Wunderground v.1.15,2013-01-11 10:10:00,
2013-01-11 04:15:00,63.1,60.4,30.06,North,32767,0.0,0.0,91,0.00,,,0.00,Wunderground v.1.15,2013-01-11 10:15:00,
2013-01-11 04:20:00,63.2,60.5,30.06,North,32767,0.0,0.0,91,0.00,,,0.00,Wunderground v.1.15,2013-01-11 10:20:00,
2013-01-11 04:25:00,63.2,60.5,30.07,North,32767,0.0,0.0,91,0.00,,,0.00,Wunderground v.1.15,2013-01-11 10:25:00,
2013-01-11 04:30:00,63.2,60.5,30.07,North,32767,0.0,0.0,91,0.00,,,0.00,Wunderground v.1.15,2013-01-11 10:30:00,
2013-01-11 04:35:00,63.2,60.5,30.07,North,32767,0.0,0.0,91,0.00,,,0.00,Wunderground v.1.15,2013-01-11 10:35:00,
2013-01-11 04:40:00,63.2,60.5,30.07,North,32767,0.0,0.0,91,0.00,,,0.00,Wunderground v.1.15,2013-01-11 10:40:00,
2013-01-11 04:45:00,63.3,60.6,30.07,North,32767,0.0,0.0,91,0.00,,,0.00,Wunderground v.1.15,2013-01-11 10:45:00,
2013-01-11 04:50:00,63.3,60.6,30.07,North,32767,0.0,0.0,91,0.00,,,0.00,Wunderground v.1.15,2013-01-11 10:50:00,
2013-01-11 04:55:00,63.3,60.6,30.07,North,32767,0.0,0.0,91,0.00,,,0.00,Wunderground v.1.15,2013-01-11 10:55:00,
2013-01-11 05:00:00,63.3,60.6,30.07,North,32767,0.0,0.0,91,0.00,,,0.00,Wunderground v.1.15,2013-01-11 11:00:00,
2013-01-11 05:05:00,63.4,60.7,30.07,North,32767,0.0,0.0,91,0.00,,,0.00,Wunderground v.1.15,2013-01-11 11:05:00,
2013-01-11 05:15:00,63.5,60.8,30.07,North,32767,0.0,0.0,91,0.00,,,0.00,Wunderground v.1.15,2013-01-11 11:15:00,
2013-01-11 05:20:00,63.5,60.8,30.07,North,32767,0.0,0.0,91,0.00,,,0.00,Wunderground v.1.15,2013-01-11 11:20:00,
2013-01-11 05:25:00,63.5,60.8,30.07,North,32767,0.0,0.0,91,0.00,,,0.00,Wunderground v.1.15,2013-01-11 11:25:00,
2013-01-11 05:30:00,63.5,60.8,30.08,North,32767,0.0,0.0,91,0.00,,,0.00,Wunderground v.1.15,2013-01-11 11:30:00,
2013-01-11 05:35:00,63.4,60.7,30.08,North,32767,0.0,0.0,91,0.00,,,0.00,Wunderground v.1.15,2013-01-11 11:35:00,
2013-01-11 05:40:00,63.5,60.8,30.08,North,32767,0.0,0.0,91,0.00,,,0.00,Wunderground v.1.15,2013-01-11 11:40:00,
2013-01-11 05:45:00,63.4,60.7,30.08,North,32767,0.0,0.0,91,0.00,,,0.00,Wunderground v.1.15,2013-01-11 11:45:00,
2013-01-11 05:50:00,63.3,60.6,30.08,North,32767,0.0,0.0,91,0.00,,,0.00,Wunderground v.1.15,2013-01-11 11:50:00,
2013-01-11 05:55:00,63.2,60.5,30.08,North,32767,0.0,0.0,91,0.00,,,0.00,Wunderground v.1.15,2013-01-11 11:55:00,
2013-01-11 06:00:00,63.1,60.4,30.08,North,32767,0.0,0.0,91,0.00,,,0.00,Wunderground v.1.15,2013-01-11 12:00:00,
2013-01-11 06:05:00,62.9,60.2,30.09,North,32767,0.0,0.0,91,0.00,,,0.00,Wunderground v.1.15,2013-01-11 12:05:00,
2013-01-11 06:15:00,62.9,60.2,30.09,North,32767,0.0,0.0,91,0.00,,,0.00,Wunderground v.1.15,2013-01-11 12:15:00,
2013-01-11 06:20:00,62.9,60.2,30.09,North,32767,0.0,0.0,91,0.00,,,0.00,Wunderground v.1.15,2013-01-11 12:20:00,
2013-01-11 06:25:00,62.9,60.2,30.10,North,32767,0.0,0.0,91,0.00,,,0.00,Wunderground v.1.15,2013-01-11 12:25:00,
2013-01-11 06:30:00,62.9,60.2,30.10,North,32767,0.0,0.0,91,0.00,,,0.00,Wunderground v.1.15,2013-01-11 12:30:00,
2013-01-11 06:35:00,63.3,60.6,30.09,North,32767,0.0,0.0,91,0.00,,,0.00,Wunderground v.1.15,2013-01-11 12:35:00,
2013-01-11 06:40:00,63.7,61.0,30.09,North,32767,0.0,0.0,91,0.00,,,0.00,Wunderground v.1.15,2013-01-11 12:40:00,
2013-01-11 06:45:00,64.0,61.3,30.09,North,32767,0.0,0.0,91,0.00,,,0.00,Wunderground v.1.15,2013-01-11 12:45:00,
2013-01-11 06:50:00,64.3,61.6,30.10,North,32767,0.0,0.0,91,0.00,,,0.00,Wunderground v.1.15,2013-01-11 12:50:00,
2013-01-11 06:55:00,64.3,61.6,30.10,North,32767,0.0,0.0,91,0.00,,,0.00,Wunderground v.1.15,2013-01-11 12:55:00,
2013-01-11 07:00:00,64.4,61.7,30.10,North,32767,0.0,0.0,91,0.00,,,0.00,Wunderground v.1.15,2013-01-11 13:00:00,
2013-01-11 07:05:00,64.4,61.7,30.10,North,32767,0.0,0.0,91,0.00,,,0.00,Wunderground v.1.15,2013-01-11 13:05:00,
2013-01-11 07:15:00,64.3,61.6,30.11,North,32767,0.0,0.0,91,0.00,,,0.00,Wunderground v.1.15,2013-01-11 13:15:00,
2013-01-11 07:20:00,64.3,61.6,30.11,North,32767,0.0,0.0,91,0.00,,,0.00,Wunderground v.1.15,2013-01-11 13:20:00,
2013-01-11 07:25:00,64.3,61.6,30.11,North,32767,0.0,0.0,91,0.00,,,0.00,Wunderground v.1.15,2013-01-11 13:25:00,
2013-01-11 07:30:00,64.3,61.6,30.11,North,32767,0.0,0.0,91,0.00,,,0.00,Wunderground v.1.15,2013-01-11 13:30:00,
2013-01-11 07:35:00,64.3,61.6,30.11,North,32767,0.0,0.0,91,0.00,,,0.00,Wunderground v.1.15,2013-01-11 13:35:00,
2013-01-11 07:40:00,64.5,61.8,30.11,North,32767,0.0,0.0,91,0.00,,,0.00,Wunderground v.1.15,2013-01-11 13:40:00,
2013-01-11 07:45:00,64.8,62.1,30.11,North,32767,0.0,0.0,91,0.00,,,0.00,Wunderground v.1.15,2013-01-11 13:45:00,
2013-01-11 07:50:00,65.1,62.4,30.11,North,32767,0.0,0.0,91,0.00,,,0.00,Wunderground v.1.15,2013-01-11 13:50:00,
2013-01-11 07:55:00,65.4,62.7,30.11,North,32767,0.0,0.0,91,0.00,,,0.00,Wunderground v.1.15,2013-01-11 13:55:00,
2013-01-11 08:00:00,65.6,62.9,30.11,North,32767,0.0,0.0,91,0.00,,,0.00,Wunderground v.1.15,2013-01-11 14:00:00,
2013-01-11 08:05:00,65.8,63.1,30.11,North,32767,0.0,0.0,91,0.00,,,0.00,Wunderground v.1.15,2013-01-11 14:05:00,
2013-01-11 08:10:00,65.9,63.2,30.11,North,32767,0.0,0.0,91,0.00,,,0.00,Wunderground v.1.15,2013-01-11 14:10:00,
2013-01-11 08:15:00,66.0,63.3,30.12,North,32767,0.0,0.0,91,0.00,,,0.00,Wunderground v.1.15,2013-01-11 14:15:00,
2013-01-11 08:20:00,66.1,63.4,30.12,North,32767,0.0,0.0,91,0.00,,,0.00,Wunderground v.1.15,2013-01-11 14:20:00,
2013-01-11 08:25:00,66.1,63.4,30.12,North,32767,0.0,0.0,91,0.00,,,0.00,Wunderground v.1.15,2013-01-11 14:25:00,
2013-01-11 08:30:00,66.2,63.5,30.12,North,32767,0.0,0.0,91,0.00,,,0.00,Wunderground v.1.15,2013-01-11 14:30:00,
2013-01-11 08:35:00,66.3,63.6,30.12,N/A,-737280,0.0,-999.0,91,0.00,,,0.00,Wunderground v.1.15,2013-01-11 14:35:00,
2013-01-11 08:40:00,66.5,63.8,30.12,North,32767,0.0,0.0,91,0.00,,,0.00,Wunderground v.1.15,2013-01-11 14:40:00,
2013-01-11 08:45:00,66.7,64.0,30.12,N/A,-737280,0.0,-999.0,91,0.00,,,0.00,Wunderground v.1.15,2013-01-11 14:45:00,
2013-01-11 08:50:00,66.9,63.9,30.12,N/A,-737280,0.0,-999.0,90,0.00,,,0.00,Wunderground v.1.15,2013-01-11 14:50:00,
2013-01-11 08:55:00,67.0,64.3,30.12,N/A,-737280,0.0,-999.0,91,0.00,,,0.00,Wunderground v.1.15,2013-01-11 14:55:00,
2013-01-11 09:00:00,67.1,64.4,30.13,N/A,-737280,0.0,-999.0,91,0.00,,,0.00,Wunderground v.1.15,2013-01-11 15:00:00,
2013-01-11 09:05:00,67.2,64.5,30.13,N/A,-737280,0.0,-999.0,91,0.00,,,0.00,Wunderground v.1.15,2013-01-11 15:05:00,
2013-01-11 09:10:00,67.4,64.4,30.13,N/A,-737280,0.0,-999.0,90,0.00,,,0.00,Wunderground v.1.15,2013-01-11 15:10:00,
2013-01-11 09:15:00,67.6,64.9,30.13,N/A,-737280,0.0,-999.0,91,0.00,,,0.00,Wunderground v.1.15,2013-01-11 15:15:00,
2013-01-11 09:20:00,67.8,64.8,30.13,N/A,-737280,0.0,-999.0,90,0.00,,,0.00,Wunderground v.1.15,2013-01-11 15:20:00,
2013-01-11 09:25:00,68.0,65.0,30.13,N/A,-737280,0.0,-999.0,90,0.00,,,0.00,Wunderground v.1.15,2013-01-11 15:25:00,
2013-01-11 09:30:00,68.3,65.3,30.13,N/A,-737280,0.0,-999.0,90,0.00,,,0.00,Wunderground v.1.15,2013-01-11 15:30:00,
2013-01-11 09:35:00,68.6,65.5,30.13,N/A,-737280,0.0,-999.0,90,0.00,,,0.00,Wunderground v.1.15,2013-01-11 15:35:00,
2013-01-11 09:40:00,68.9,65.8,30.13,N/A,-737280,0.0,-999.0,90,0.00,,,0.00,Wunderground v.1.15,2013-01-11 15:40:00,
2013-01-11 09:45:00,69.4,66.3,30.13,N/A,-737280,0.0,-999.0,90,0.00,,,0.00,Wunderground v.1.15,2013-01-11 15:45:00,
2013-01-11 09:50:00,70.2,67.1,30.13,N/A,-737280,0.0,-999.0,90,0.00,,,0.00,Wunderground v.1.15,2013-01-11 15:50:00,
2013-01-11 09:55:00,71.1,67.7,30.13,N/A,-737280,0.0,-999.0,89,0.00,,,0.00,Wunderground v.1.15,2013-01-11 15:55:00,
2013-01-11 10:00:00,71.5,67.8,30.13,N/A,-737280,0.0,-999.0,88,0.00,,,0.00,Wunderground v.1.15,2013-01-11 16:00:00,
2013-01-11 10:05:00,71.7,68.0,30.13,N/A,-737280,0.0,-999.0,88,0.00,,,0.00,Wunderground v.1.15,2013-01-11 16:05:00,
2013-01-11 10:10:00,71.9,68.2,30.13,N/A,-737280,0.0,-999.0,88,0.00,,,0.00,Wunderground v.1.15,2013-01-11 16:10:00,
2013-01-11 10:15:00,72.2,68.4,30.12,N/A,-737280,0.0,-999.0,88,0.00,,,0.00,Wunderground v.1.15,2013-01-11 16:15:00,
2013-01-11 10:20:00,72.6,68.5,30.13,N/A,-737280,0.0,-999.0,87,0.00,,,0.00,Wunderground v.1.15,2013-01-11 16:20:00,
2013-01-11 10:25:00,72.8,68.7,30.12,N/A,-737280,0.0,-999.0,87,0.00,,,0.00,Wunderground v.1.15,2013-01-11 16:25:00,
2013-01-11 10:30:00,72.8,68.7,30.12,N/A,-737280,0.0,-999.0,87,0.00,,,0.00,Wunderground v.1.15,2013-01-11 16:30:00,
2013-01-11 10:35:00,72.8,68.7,30.12,N/A,-737280,0.0,-999.0,87,0.00,,,0.00,Wunderground v.1.15,2013-01-11 16:35:00,
2013-01-11 10:40:00,73.1,69.0,30.12,N/A,-737280,0.0,-999.0,87,0.00,,,0.00,Wunderground v.1.15,2013-01-11 16:40:00,
2013-01-11 10:52:00,73.7,69.6,30.12,N/A,-737280,0.0,-999.0,87,0.00,,,0.00,Wunderground v.1.15,2013-01-11 16:52:00,
2013-01-11 10:55:00,74.2,69.4,30.12,North,32767,0.0,0.0,85,0.00,,,0.00,Wunderground v.1.15,2013-01-11 16:55:00,
2013-01-11 11:00:00,74.2,69.4,30.11,North,32767,0.0,0.0,85,0.00,,,0.00,Wunderground v.1.15,2013-01-11 17:00:00,
2013-01-11 11:05:00,74.4,69.6,30.11,North,32767,0.0,0.0,85,0.00,,,0.00,Wunderground v.1.15,2013-01-11 17:05:00,
2013-01-11 11:10:00,74.5,69.7,30.11,North,32767,0.0,0.0,85,0.00,,,0.00,Wunderground v.1.15,2013-01-11 17:10:00,
2013-01-11 11:15:00,74.4,69.6,30.11,North,32767,0.0,0.0,85,0.00,,,0.00,Wunderground v.1.15,2013-01-11 17:15:00,
2013-01-11 11:20:00,74.5,69.7,30.10,North,32767,0.0,0.0,85,0.00,,,0.00,Wunderground v.1.15,2013-01-11 17:20:00,
2013-01-11 11:25:00,74.4,69.6,30.10,North,32767,0.0,0.0,85,0.00,,,0.00,Wunderground v.1.15,2013-01-11 17:25:00,
2013-01-11 11:30:00,74.6,69.8,30.10,North,32767,0.0,0.0,85,0.00,,,0.00,Wunderground v.1.15,2013-01-11 17:30:00,
2013-01-11 11:35:00,74.6,69.4,30.10,North,32767,0.0,0.0,84,0.00,,,0.00,Wunderground v.1.15,2013-01-11 17:35:00,
2013-01-11 11:40:00,74.6,69.4,30.10,North,32767,0.0,0.0,84,0.00,,,0.00,Wunderground v.1.15,2013-01-11 17:40:00,
2013-01-11 11:45:00,74.7,69.5,30.10,North,32767,0.0,0.0,84,0.00,,,0.00,Wunderground v.1.15,2013-01-11 17:45:00,
2013-01-11 11:50:00,74.8,69.3,30.09,North,32767,0.0,0.0,83,0.00,,,0.00,Wunderground v.1.15,2013-01-11 17:50:00,
2013-01-11 11:55:00,74.5,69.3,30.09,North,32767,0.0,0.0,84,0.00,,,0.00,Wunderground v.1.15,2013-01-11 17:55:00,
2013-01-11 12:00:00,74.2,69.1,30.09,North,32767,0.0,0.0,84,0.00,,,0.00,Wunderground v.1.15,2013-01-11 18:00:00,
2013-01-11 12:05:00,73.7,68.9,30.09,North,32767,0.0,0.0,85,0.00,,,0.00,Wunderground v.1.15,2013-01-11 18:05:00,
2013-01-11 12:10:00,73.4,68.6,30.08,North,32767,0.0,0.0,85,0.00,,,0.00,Wunderground v.1.15,2013-01-11 18:10:00,
2013-01-11 12:20:00,72.5,68.1,30.08,North,32767,0.0,0.0,86,0.00,,,0.00,Wunderground v.1.15,2013-01-11 18:20:00,
2013-01-11 12:25:00,72.2,67.8,30.08,North,32767,0.0,0.0,86,0.00,,,0.00,Wunderground v.1.15,2013-01-11 18:25:00,
2013-01-11 12:30:00,71.9,67.8,30.08,North,32767,0.0,0.0,87,0.00,,,0.00,Wunderground v.1.15,2013-01-11 18:30:00,
2013-01-11 12:35:00,71.5,67.4,30.07,North,32767,0.0,0.0,87,0.00,,,0.00,Wunderground v.1.15,2013-01-11 18:35:00,
2013-01-11 12:40:00,71.3,67.2,30.07,North,32767,0.0,0.0,87,0.00,,,0.00,Wunderground v.1.15,2013-01-11 18:40:00,
2013-01-11 12:45:00,71.2,67.1,30.07,North,32767,0.0,0.0,87,0.00,,,0.00,Wunderground v.1.15,2013-01-11 18:45:00,
2013-01-11 12:50:00,71.3,67.6,30.07,North,32767,0.0,0.0,88,0.00,,,0.00,Wunderground v.1.15,2013-01-11 18:50:00,
2013-01-11 12:55:00,71.4,67.3,30.06,North,32767,0.0,0.0,87,0.00,,,0.00,Wunderground v.1.15,2013-01-11 18:55:00,
2013-01-11 13:00:00,71.5,67.4,30.06,North,32767,0.0,0.0,87,0.00,,,0.00,Wunderground v.1.15,2013-01-11 19:00:00,
2013-01-11 13:05:00,72.0,67.9,30.06,North,32767,0.0,0.0,87,0.00,,,0.00,Wunderground v.1.15,2013-01-11 19:05:00,
2013-01-11 13:10:00,72.3,68.2,30.06,North,32767,0.0,0.0,87,0.00,,,0.00,Wunderground v.1.15,2013-01-11 19:10:00,
2013-01-11 13:15:00,72.5,68.1,30.06,North,32767,0.0,0.0,86,0.00,,,0.00,Wunderground v.1.15,2013-01-11 19:15:00,
2013-01-11 13:20:00,72.6,68.2,30.05,North,32767,0.0,0.0,86,0.00,,,0.00,Wunderground v.1.15,2013-01-11 19:20:00,
2013-01-11 13:30:00,73.2,68.4,30.05,North,32767,0.0,0.0,85,0.00,,,0.00,Wunderground v.1.15,2013-01-11 19:30:00,
2013-01-11 13:35:00,73.4,68.6,30.05,North,32767,0.0,0.0,85,0.00,,,0.00,Wunderground v.1.15,2013-01-11 19:35:00,
2013-01-11 13:40:00,73.4,68.6,30.05,North,32767,0.0,0.0,85,0.00,,,0.00,Wunderground v.1.15,2013-01-11 19:40:00,
2013-01-11 13:45:00,73.6,68.5,30.05,North,32767,0.0,0.0,84,0.00,,,0.00,Wunderground v.1.15,2013-01-11 19:45:00,
2013-01-11 13:50:00,73.5,68.4,30.05,North,32767,0.0,0.0,84,0.00,,,0.00,Wunderground v.1.15,2013-01-11 19:50:00,
2013-01-11 13:55:00,73.2,68.4,30.04,North,32767,0.0,0.0,85,0.00,,,0.00,Wunderground v.1.15,2013-01-11 19:55:00,
2013-01-11 14:00:00,73.1,68.3,30.04,North,32767,0.0,0.0,85,0.00,,,0.00,Wunderground v.1.15,2013-01-11 20:00:00,
2013-01-11 14:05:00,73.1,68.3,30.04,North,32767,0.0,0.0,85,0.00,,,0.00,Wunderground v.1.15,2013-01-11 20:05:00,
2013-01-11 14:10:00,72.9,68.1,30.05,North,32767,0.0,0.0,85,0.00,,,0.00,Wunderground v.1.15,2013-01-11 20:10:00,
2013-01-11 14:15:00,72.7,67.9,30.05,North,32767,0.0,0.0,85,0.00,,,0.00,Wunderground v.1.15,2013-01-11 20:15:00,
2013-01-11 14:20:00,72.6,68.2,30.05,North,32767,0.0,0.0,86,0.00,,,0.00,Wunderground v.1.15,2013-01-11 20:20:00,
2013-01-11 14:25:00,72.7,68.3,30.05,North,32767,0.0,0.0,86,0.00,,,0.00,Wunderground v.1.15,2013-01-11 20:25:00,
2013-01-11 14:30:00,72.6,68.2,30.05,North,32767,0.0,0.0,86,0.00,,,0.00,Wunderground v.1.15,2013-01-11 20:30:00,
2013-01-11 14:35:00,72.9,68.5,30.05,North,32767,0.0,0.0,86,0.00,,,0.00,Wunderground v.1.15,2013-01-11 20:35:00,
2013-01-11 14:40:00,73.2,68.4,30.05,North,32767,0.0,0.0,85,0.00,,,0.00,Wunderground v.1.15,2013-01-11 20:40:00,
2013-01-11 14:45:00,73.1,68.3,30.05,North,32767,0.0,0.0,85,0.00,,,0.00,Wunderground v.1.15,2013-01-11 20:45:00,
2013-01-11 14:50:00,72.7,68.3,30.04,North,32767,0.0,0.0,86,0.00,,,0.00,Wunderground v.1.15,2013-01-11 20:50:00,
2013-01-11 14:55:00,72.5,68.1,30.05,North,32767,0.0,0.0,86,0.00,,,0.00,Wunderground v.1.15,2013-01-11 20:55:00,
2013-01-11 15:00:00,72.2,67.8,30.05,North,32767,0.0,0.0,86,0.00,,,0.00,Wunderground v.1.15,2013-01-11 21:00:00,
2013-01-11 15:05:00,72.2,68.1,30.05,North,32767,0.0,0.0,87,0.00,,,0.00,Wunderground v.1.15,2013-01-11 21:05:00,
2013-01-11 15:10:00,72.1,68.0,30.04,North,32767,0.0,0.0,87,0.00,,,0.00,Wunderground v.1.15,2013-01-11 21:10:00,
2013-01-11 15:15:00,71.8,67.7,30.05,North,32767,0.0,0.0,87,0.00,,,0.00,Wunderground v.1.15,2013-01-11 21:15:00,
2013-01-11 15:20:00,71.6,67.5,30.05,North,32767,0.0,0.0,87,0.00,,,0.00,Wunderground v.1.15,2013-01-11 21:20:00,
2013-01-11 15:25:00,71.4,67.3,30.04,North,32767,0.0,0.0,87,0.00,,,0.00,Wunderground v.1.15,2013-01-11 21:25:00,
2013-01-11 15:30:00,71.4,67.7,30.04,North,32767,0.0,0.0,88,0.00,,,0.00,Wunderground v.1.15,2013-01-11 21:30:00,
2013-01-11 15:35:00,71.3,67.6,30.04,North,32767,0.0,0.0,88,0.00,,,0.00,Wunderground v.1.15,2013-01-11 21:35:00,
2013-01-11 15:40:00,71.2,67.5,30.04,North,32767,0.0,0.0,88,0.00,,,0.00,Wunderground v.1.15,2013-01-11 21:40:00,
2013-01-11 15:45:00,71.1,67.4,30.04,North,32767,0.0,0.0,88,0.00,,,0.00,Wunderground v.1.15,2013-01-11 21:45:00,
2013-01-11 15:50:00,71.1,67.4,30.04,North,32767,0.0,0.0,88,0.00,,,0.00,Wunderground v.1.15,2013-01-11 21:50:00,
2013-01-11 15:55:00,71.4,67.7,30.04,North,32767,0.0,0.0,88,0.00,,,0.00,Wunderground v.1.15,2013-01-11 21:55:00,
2013-01-11 16:00:00,71.6,67.9,30.04,North,32767,0.0,0.0,88,0.00,,,0.00,Wunderground v.1.15,2013-01-11 22:00:00,
2013-01-11 16:05:00,71.5,67.8,30.05,North,32767,0.0,0.0,88,0.00,,,0.00,Wunderground v.1.15,2013-01-11 22:05:00,
2013-01-11 16:10:00,71.3,67.6,30.05,North,32767,0.0,0.0,88,0.00,,,0.00,Wunderground v.1.15,2013-01-11 22:10:00,
2013-01-11 16:15:00,71.0,67.3,30.05,North,32767,0.0,0.0,88,0.00,,,0.00,Wunderground v.1.15,2013-01-11 22:15:00,
2013-01-11 16:20:00,70.4,66.7,30.05,North,32767,0.0,0.0,88,0.00,,,0.00,Wunderground v.1.15,2013-01-11 22:20:00,
2013-01-11 16:25:00,69.9,66.2,30.05,North,32767,0.0,0.0,88,0.00,,,0.00,Wunderground v.1.15,2013-01-11 22:25:00,
2013-01-11 16:35:00,69.1,65.7,30.05,North,32767,0.0,0.0,89,0.00,,,0.00,Wunderground v.1.15,2013-01-11 22:35:00,
2013-01-11 16:40:00,68.9,65.5,30.05,North,32767,0.0,0.0,89,0.00,,,0.00,Wunderground v.1.15,2013-01-11 22:40:00,
2013-01-11 16:45:00,68.6,65.2,30.05,North,32767,0.0,0.0,89,0.00,,,0.00,Wunderground v.1.15,2013-01-11 22:45:00,
2013-01-11 16:50:00,68.5,65.4,30.05,North,32767,0.0,0.0,90,0.00,,,0.00,Wunderground v.1.15,2013-01-11 22:50:00,
2013-01-11 16:55:00,68.3,65.3,30.05,North,32767,0.0,0.0,90,0.00,,,0.00,Wunderground v.1.15,2013-01-11 22:55:00,
2013-01-11 17:00:00,68.3,65.3,30.05,North,32767,0.0,0.0,90,0.00,,,0.00,Wunderground v.1.15,2013-01-11 23:00:00,
2013-01-11 17:05:00,68.2,65.2,30.05,North,32767,0.0,0.0,90,0.00,,,0.00,Wunderground v.1.15,2013-01-11 23:05:00,
2013-01-11 17:10:00,68.1,65.1,30.06,North,32767,0.0,0.0,90,0.00,,,0.00,Wunderground v.1.15,2013-01-11 23:10:00,
2013-01-11 17:15:00,68.0,65.0,30.06,North,32767,0.0,0.0,90,0.00,,,0.00,Wunderground v.1.15,2013-01-11 23:15:00,
2013-01-11 17:20:00,68.0,65.0,30.06,North,32767,0.0,0.0,90,0.00,,,0.00,Wunderground v.1.15,2013-01-11 23:20:00,
2013-01-11 17:25:00,68.1,65.1,30.05,North,32767,0.0,0.0,90,0.00,,,0.00,Wunderground v.1.15,2013-01-11 23:25:00,
2013-01-11 17:30:00,68.1,65.1,30.05,North,32767,0.0,0.0,90,0.00,,,0.00,Wunderground v.1.15,2013-01-11 23:30:00,
2013-01-11 17:35:00,68.0,65.0,30.05,North,32767,0.0,0.0,90,0.00,,,0.00,Wunderground v.1.15,2013-01-11 23:35:00,
2013-01-11 17:45:00,68.1,65.1,30.05,North,32767,0.0,0.0,90,0.00,,,0.00,Wunderground v.1.15,2013-01-11 23:45:00,
2013-01-11 17:50:00,68.1,65.1,30.06,North,32767,0.0,0.0,90,0.00,,,0.00,Wunderground v.1.15,2013-01-11 23:50:00,
2013-01-11 17:55:00,68.0,65.0,30.06,North,32767,0.0,0.0,90,0.00,,,0.00,Wunderground v.1.15,2013-01-11 23:55:00,
2013-01-11 18:00:00,68.0,65.0,30.06,North,32767,0.0,0.0,90,0.00,,,0.00,Wunderground v.1.15,2013-01-12 00:00:00,
2013-01-11 18:05:00,68.1,65.1,30.06,North,32767,0.0,0.0,90,0.00,,,0.00,Wunderground v.1.15,2013-01-12 00:05:00,
2013-01-11 18:15:00,67.8,64.8,30.06,North,32767,0.0,0.0,90,0.00,,,0.00,Wunderground v.1.15,2013-01-12 00:15:00,
2013-01-11 18:20:00,67.7,64.7,30.06,North,32767,0.0,0.0,90,0.00,,,0.00,Wunderground v.1.15,2013-01-12 00:20:00,
2013-01-11 18:25:00,67.6,64.6,30.06,North,32767,0.0,0.0,90,0.00,,,0.00,Wunderground v.1.15,2013-01-12 00:25:00,
2013-01-11 18:30:00,67.5,64.5,30.06,North,32767,0.0,0.0,90,0.00,,,0.00,Wunderground v.1.15,2013-01-12 00:30:00,
2013-01-11 18:35:00,67.4,64.4,30.06,North,32767,0.0,0.0,90,0.00,,,0.00,Wunderground v.1.15,2013-01-12 00:35:00,
2013-01-11 18:40:00,67.3,64.3,30.06,North,32767,0.0,0.0,90,0.00,,,0.00,Wunderground v.1.15,2013-01-12 00:40:00,
2013-01-11 18:45:00,67.3,64.3,30.06,North,32767,0.0,0.0,90,0.00,,,0.00,Wunderground v.1.15,2013-01-12 00:45:00,
2013-01-11 18:55:00,67.4,64.4,30.06,North,32767,0.0,0.0,90,0.00,,,0.00,Wunderground v.1.15,2013-01-12 00:55:00,
2013-01-11 19:00:00,67.5,64.5,30.06,North,32767,0.0,0.0,90,0.00,,,0.00,Wunderground v.1.15,2013-01-12 01:00:00,
2013-01-11 19:05:00,67.6,64.6,30.06,North,32767,0.0,0.0,90,0.00,,,0.00,Wunderground v.1.15,2013-01-12 01:05:00,
2013-01-11 19:15:00,67.7,65.0,30.07,North,32767,0.0,0.0,91,0.00,,,0.00,Wunderground v.1.15,2013-01-12 01:15:00,
2013-01-11 19:20:00,67.6,64.6,30.08,North,32767,0.0,0.0,90,0.00,,,0.00,Wunderground v.1.15,2013-01-12 01:20:00,
2013-01-11 19:25:00,67.5,64.5,30.08,North,32767,0.0,0.0,90,0.00,,,0.00,Wunderground v.1.15,2013-01-12 01:25:00,
2013-01-11 19:30:00,67.4,64.7,30.08,North,32767,0.0,0.0,91,0.00,,,0.00,Wunderground v.1.15,2013-01-12 01:30:00,
2013-01-11 19:40:00,67.3,64.6,30.08,North,32767,0.0,0.0,91,0.00,,,0.00,Wunderground v.1.15,2013-01-12 01:40:00,
2013-01-11 19:45:00,67.1,64.4,30.07,North,32767,0.0,0.0,91,0.00,,,0.00,Wunderground v.1.15,2013-01-12 01:45:00,
2013-01-11 19:50:00,67.1,64.4,30.07,North,32767,0.0,0.0,91,0.00,,,0.00,Wunderground v.1.15,2013-01-12 01:50:00,
2013-01-11 19:55:00,66.8,64.1,30.07,North,32767,0.0,0.0,91,0.00,,,0.00,Wunderground v.1.15,2013-01-12 01:55:00,
2013-01-11 20:00:00,66.7,64.0,30.07,N/A,-737280,0.0,-999.0,91,0.00,,,0.00,Wunderground v.1.15,2013-01-12 02:00:00,
2013-01-11 20:05:00,66.5,63.8,30.08,North,32767,0.0,0.0,91,0.00,,,0.00,Wunderground v.1.15,2013-01-12 02:05:00,
2013-01-11 20:10:00,66.5,63.8,30.07,North,32767,0.0,0.0,91,0.00,,,0.00,Wunderground v.1.15,2013-01-12 02:10:00,
2013-01-11 20:15:00,66.5,63.8,30.07,North,32767,0.0,0.0,91,0.00,,,0.00,Wunderground v.1.15,2013-01-12 02:15:00,
2013-01-11 20:20:00,66.5,63.8,30.07,North,32767,0.0,0.0,91,0.00,,,0.00,Wunderground v.1.15,2013-01-12 02:20:00,
2013-01-11 20:25:00,66.6,63.9,30.08,North,32767,0.0,0.0,91,0.00,,,0.00,Wunderground v.1.15,2013-01-12 02:25:00,
2013-01-11 20:30:00,66.8,64.1,30.08,North,32767,0.0,0.0,91,0.00,,,0.00,Wunderground v.1.15,2013-01-12 02:30:00,
2013-01-11 20:35:00,66.8,64.1,30.08,North,32767,0.0,0.0,91,0.00,,,0.00,Wunderground v.1.15,2013-01-12 02:35:00,
2013-01-11 20:40:00,66.7,64.0,30.08,North,32767,0.0,0.0,91,0.00,,,0.00,Wunderground v.1.15,2013-01-12 02:40:00,
2013-01-11 20:45:00,66.8,64.1,30.08,North,32767,0.0,0.0,91,0.00,,,0.00,Wunderground v.1.15,2013-01-12 02:45:00,
2013-01-11 20:50:00,66.8,64.1,30.08,North,32767,0.0,0.0,91,0.00,,,0.00,Wunderground v.1.15,2013-01-12 02:50:00,
2013-01-11 20:55:00,66.7,64.0,30.08,North,32767,0.0,0.0,91,0.00,,,0.00,Wunderground v.1.15,2013-01-12 02:55:00,
2013-01-11 21:00:00,66.7,64.0,30.08,North,32767,0.0,0.0,91,0.00,,,0.00,Wunderground v.1.15,2013-01-12 03:00:00,
2013-01-11 21:05:00,66.8,64.1,30.08,North,32767,0.0,0.0,91,0.00,,,0.00,Wunderground v.1.15,2013-01-12 03:05:00,
2013-01-11 21:10:00,66.9,64.2,30.08,North,32767,0.0,0.0,91,0.00,,,0.00,Wunderground v.1.15,2013-01-12 03:10:00,
2013-01-11 21:15:00,66.9,64.2,30.08,North,32767,0.0,0.0,91,0.00,,,0.00,Wunderground v.1.15,2013-01-12 03:15:00,
2013-01-11 21:20:00,66.8,64.1,30.08,North,32767,0.0,0.0,91,0.00,,,0.00,Wunderground v.1.15,2013-01-12 03:20:00,
2013-01-11 21:25:00,66.8,64.1,30.08,North,32767,0.0,0.0,91,0.00,,,0.00,Wunderground v.1.15,2013-01-12 03:25:00,
2013-01-11 21:30:00,66.9,64.2,30.07,North,32767,0.0,0.0,91,0.00,,,0.00,Wunderground v.1.15,2013-01-12 03:30:00,
2013-01-11 21:35:00,66.9,64.2,30.07,North,32767,0.0,0.0,91,0.00,,,0.00,Wunderground v.1.15,2013-01-12 03:35:00,
2013-01-11 21:40:00,67.0,64.3,30.07,North,32767,0.0,0.0,91,0.00,,,0.00,Wunderground v.1.15,2013-01-12 03:40:00,
2013-01-11 21:45:00,67.0,64.3,30.08,North,32767,0.0,0.0,91,0.00,,,0.00,Wunderground v.1.15,2013-01-12 03:45:00,
2013-01-11 21:50:00,67.1,64.4,30.08,North,32767,0.0,0.0,91,0.00,,,0.00,Wunderground v.1.15,2013-01-12 03:50:00,
2013-01-11 21:55:00,67.0,64.3,30.08,North,32767,0.0,0.0,91,0.00,,,0.00,Wunderground v.1.15,2013-01-12 03:55:00,
2013-01-11 22:00:00,67.0,64.3,30.08,North,32767,0.0,0.0,91,0.00,,,0.00,Wunderground v.1.15,2013-01-12 04:00:00,
2013-01-11 22:05:00,66.9,64.2,30.08,North,32767,0.0,0.0,91,0.00,,,0.00,Wunderground v.1.15,2013-01-12 04:05:00,
2013-01-11 22:10:00,66.9,64.2,30.08,N/A,-737280,0.0,-999.0,91,0.00,,,0.00,Wunderground v.1.15,2013-01-12 04:10:00,
2013-01-11 22:15:00,66.8,64.1,30.08,North,32767,0.0,0.0,91,0.00,,,0.00,Wunderground v.1.15,2013-01-12 04:15:00,
2013-01-11 22:20:00,66.7,64.0,30.08,N/A,-737280,0.0,-999.0,91,0.00,,,0.00,Wunderground v.1.15,2013-01-12 04:20:00,
2013-01-11 22:34:00,66.6,63.9,30.08,N/A,-737280,0.0,-999.0,91,0.00,,,0.00,Wunderground v.1.15,2013-01-12 04:34:00,
2013-01-11 22:35:00,66.4,63.7,30.08,North,32767,0.0,0.0,91,0.00,,,0.00,Wunderground v.1.15,2013-01-12 04:35:00,
2013-01-11 22:40:00,66.3,63.6,30.08,North,32767,0.0,0.0,91,0.00,,,0.00,Wunderground v.1.15,2013-01-12 04:40:00,
2013-01-11 22:45:00,66.1,63.4,30.08,North,32767,0.0,0.0,91,0.00,,,0.00,Wunderground v.1.15,2013-01-12 04:45:00,
2013-01-11 22:50:00,66.1,63.4,30.08,North,32767,0.0,0.0,91,0.00,,,0.00,Wunderground v.1.15,2013-01-12 04:50:00,
2013-01-11 22:55:00,66.0,63.3,30.08,North,32767,0.0,0.0,91,0.00,,,0.00,Wunderground v.1.15,2013-01-12 04:55:00,
2013-01-11 23:00:00,65.9,63.2,30.08,North,32767,0.0,0.0,91,0.00,,,0.00,Wunderground v.1.15,2013-01-12 05:00:00,
2013-01-11 23:05:00,65.9,63.2,30.08,North,32767,0.0,0.0,91,0.00,,,0.00,Wunderground v.1.15,2013-01-12 05:05:00,
2013-01-11 23:10:00,66.0,63.3,30.08,North,32767,0.0,0.0,91,0.00,,,0.00,Wunderground v.1.15,2013-01-12 05:10:00,
2013-01-11 23:15:00,66.1,63.4,30.08,North,32767,0.0,0.0,91,0.00,,,0.00,Wunderground v.1.15,2013-01-12 05:15:00,
2013-01-11 23:20:00,66.2,63.5,30.07,North,32767,0.0,0.0,91,0.00,,,0.00,Wunderground v.1.15,2013-01-12 05:20:00,
2013-01-11 23:25:00,66.3,63.6,30.07,North,32767,0.0,0.0,91,0.00,,,0.00,Wunderground v.1.15,2013-01-12 05:25:00,
2013-01-11 23:30:00,66.4,63.7,30.07,North,32767,0.0,0.0,91,0.00,,,0.00,Wunderground v.1.15,2013-01-12 05:30:00,
2013-01-11 23:35:00,66.5,63.8,30.07,North,32767,0.0,0.0,91,0.00,,,0.00,Wunderground v.1.15,2013-01-12 05:35:00,
2013-01-11 23:40:00,66.6,63.9,30.07,North,32767,0.0,0.0,91,0.00,,,0.00,Wunderground v.1.15,2013-01-12 05:40:00,
2013-01-11 23:45:00,66.7,64.0,30.07,North,32767,0.0,0.0,91,0.00,,,0.00,Wunderground v.1.15,2013-01-12 05:45:00,
2013-01-11 23:50:00,66.6,63.9,30.07,North,32767,0.0,0.0,91,0.00,,,0.00,Wunderground v.1.15,2013-01-12 05:50:00,
2013-01-11 23:55:00,66.7,64.0,30.06,North,32767,0.0,0.0,91,0.00,,,0.00,Wunderground v.1.15,2013-01-12 05:55:00,